createdAt,value
2023-07-19T00:01:12.133Z,21.74
2023-07-19T00:03:44.306Z,21.71
2023-07-19T00:06:19.137Z,21.62
2023-07-19T00:08:51.247Z,21.59
2023-07-19T00:11:25.791Z,21.56
2023-07-19T00:13:58.015Z,21.58
2023-07-19T00:16:29.774Z,21.60
2023-07-19T00:19:18.157Z,21.54
2023-07-19T00:21:52.432Z,21.48
2023-07-19T00:24:27.274Z,21.47
2023-07-19T00:26:59.126Z,21.43
2023-07-19T00:29:31.139Z,21.42
2023-07-19T00:32:11.637Z,21.37
2023-07-19T00:34:47.406Z,21.31
2023-07-19T00:37:21.919Z,21.30
2023-07-19T00:39:53.818Z,21.29
2023-07-19T00:42:26.146Z,21.21
2023-07-19T00:44:58.541Z,21.15
2023-07-19T00:47:34.675Z,21.12
2023-07-19T00:50:11.519Z,21.04
2023-07-19T00:52:44.188Z,21.01
2023-07-19T00:55:20.172Z,20.95
2023-07-19T00:57:55.303Z,20.89
2023-07-19T01:00:28.553Z,20.85
2023-07-19T01:03:01.008Z,20.83
2023-07-19T01:05:33.192Z,20.78
2023-07-19T01:08:05.275Z,20.73
2023-07-19T01:10:37.247Z,20.65
2023-07-19T01:13:13.055Z,20.47
2023-07-19T01:15:46.864Z,20.44
2023-07-19T01:18:20.428Z,20.48
2023-07-19T01:20:52.303Z,20.50
2023-07-19T01:23:27.146Z,20.50
2023-07-19T01:25:58.863Z,20.47
2023-07-19T01:28:30.865Z,20.46
2023-07-19T01:31:08.063Z,20.47
2023-07-19T01:33:41.026Z,20.45
2023-07-19T01:36:14.500Z,20.41
2023-07-19T01:38:46.516Z,20.32
2023-07-19T01:41:21.717Z,20.29
2023-07-19T01:43:54.211Z,20.23
2023-07-19T01:46:33.579Z,20.18
2023-07-19T01:49:08.021Z,20.14
2023-07-19T01:51:46.904Z,20.13
2023-07-19T01:54:19.551Z,20.17
2023-07-19T01:56:51.270Z,20.16
2023-07-19T01:59:26.694Z,20.18
2023-07-19T02:02:02.614Z,20.20
2023-07-19T02:04:34.660Z,20.19
2023-07-19T02:07:08.454Z,20.19
2023-07-19T02:09:41.718Z,20.17
2023-07-19T02:12:13.625Z,20.16
2023-07-19T02:14:45.363Z,20.06
2023-07-19T02:17:17.112Z,20.03
2023-07-19T02:19:48.920Z,20.03
2023-07-19T02:22:21.271Z,19.96
2023-07-19T02:24:53.069Z,19.83
2023-07-19T02:27:27.740Z,19.84
2023-07-19T02:29:59.766Z,19.93
2023-07-19T02:32:31.485Z,19.97
2023-07-19T02:35:03.390Z,19.96
2023-07-19T02:37:43.517Z,20.01
2023-07-19T02:40:15.270Z,20.06
2023-07-19T02:42:46.998Z,20.03
2023-07-19T02:45:21.316Z,19.98
2023-07-19T02:47:53.211Z,19.98
2023-07-19T02:50:24.975Z,19.87
2023-07-19T02:52:57.134Z,19.81
2023-07-19T02:55:31.762Z,19.76
2023-07-19T02:58:03.897Z,19.74
2023-07-19T03:00:39.651Z,19.76
2023-07-19T03:03:12.625Z,19.72
2023-07-19T03:05:44.860Z,19.71
2023-07-19T03:08:17.035Z,19.70
2023-07-19T03:10:53.038Z,19.66
2023-07-19T03:13:26.199Z,19.59
2023-07-19T03:15:58.291Z,19.49
2023-07-19T03:18:33.149Z,19.40
2023-07-19T03:21:04.993Z,19.39
2023-07-19T03:23:43.954Z,19.49
2023-07-19T03:26:19.736Z,19.49
2023-07-19T03:28:54.480Z,19.42
2023-07-19T03:31:26.992Z,19.36
2023-07-19T03:33:58.749Z,19.40
2023-07-19T03:36:30.448Z,19.48
2023-07-19T03:39:02.126Z,19.57
2023-07-19T03:41:36.766Z,19.66
2023-07-19T03:44:11.179Z,19.70
2023-07-19T03:46:46.663Z,19.74
2023-07-19T03:49:18.517Z,19.73
2023-07-19T03:51:55.500Z,19.58
2023-07-19T03:54:30.753Z,19.47
2023-07-19T03:57:07.219Z,19.42
2023-07-19T03:59:41.153Z,19.49
2023-07-19T04:02:14.034Z,19.50
2023-07-19T04:04:47.248Z,19.57
2023-07-19T04:07:19.388Z,19.67
2023-07-19T04:09:54.041Z,19.76
2023-07-19T04:12:29.539Z,19.85
2023-07-19T04:15:03.104Z,19.83
2023-07-19T04:17:35.082Z,19.80
2023-07-19T04:20:08.036Z,19.78
2023-07-19T04:22:40.138Z,19.75
2023-07-19T04:25:11.969Z,19.72
2023-07-19T04:27:44.338Z,19.72
2023-07-19T04:30:21.124Z,19.72
2023-07-19T04:32:56.561Z,19.71
2023-07-19T04:35:28.787Z,19.74
2023-07-19T04:38:01.107Z,19.83
2023-07-19T04:40:33.271Z,19.90
2023-07-19T04:43:05.753Z,19.98
2023-07-19T04:45:38.795Z,20.09
2023-07-19T04:48:11.254Z,20.11
2023-07-19T04:53:39.372Z,20.29
2023-07-19T04:56:15.193Z,20.38
2023-07-19T04:58:49.949Z,20.48
2023-07-19T05:01:22.356Z,20.60
2023-07-19T05:03:54.830Z,20.69
2023-07-19T05:06:30.592Z,20.78
2023-07-19T05:09:05.276Z,20.82
2023-07-19T05:11:41.018Z,20.91
2023-07-19T05:14:14.149Z,20.99
2023-07-19T05:16:49.838Z,21.07
2023-07-19T05:19:21.810Z,21.20
2023-07-19T05:21:57.009Z,21.43
2023-07-19T05:24:31.748Z,21.59
2023-07-19T05:27:03.994Z,21.75
2023-07-19T05:29:36.646Z,21.82
2023-07-19T05:32:17.604Z,21.98
2023-07-19T05:34:49.336Z,22.26
2023-07-19T05:37:24.201Z,22.48
2023-07-19T05:42:27.705Z,22.90
2023-07-19T05:45:02.332Z,23.17
2023-07-19T05:47:34.745Z,23.39
2023-07-19T05:50:07.435Z,23.60
2023-07-19T05:52:40.855Z,23.79
2023-07-19T05:55:14.221Z,23.86
2023-07-19T05:57:45.973Z,23.91
2023-07-19T06:00:31.347Z,24.12
2023-07-19T06:03:03.217Z,24.37
2023-07-19T06:05:36.167Z,24.57
2023-07-19T06:08:23.503Z,24.83
2023-07-19T06:10:56.774Z,24.93
2023-07-19T06:13:28.504Z,25.01
2023-07-19T06:16:00.618Z,25.21
2023-07-19T06:18:33.266Z,25.17
2023-07-19T06:21:05.026Z,24.94
2023-07-19T06:23:37.209Z,24.83
2023-07-19T06:26:09.811Z,24.69
2023-07-19T06:28:44.673Z,24.79
2023-07-19T06:31:16.524Z,24.95
2023-07-19T06:33:48.312Z,25.13
2023-07-19T06:36:20.851Z,25.04
2023-07-19T06:38:57.158Z,25.00
2023-07-19T06:41:28.978Z,24.82
2023-07-19T06:44:00.795Z,24.83
2023-07-19T06:46:32.713Z,24.88
2023-07-19T06:49:05.262Z,24.90
2023-07-19T06:51:39.830Z,25.14
2023-07-19T06:54:15.492Z,25.23
2023-07-19T06:56:47.845Z,25.08
2023-07-19T06:59:22.835Z,25.13
2023-07-19T07:01:54.586Z,25.32
2023-07-19T07:04:26.389Z,25.60
2023-07-19T07:06:58.202Z,25.66
2023-07-19T07:09:29.943Z,25.65
2023-07-19T07:12:01.713Z,25.59
2023-07-19T07:14:33.899Z,25.87
2023-07-19T07:17:07.763Z,26.20
2023-07-19T07:19:40.676Z,26.52
2023-07-19T07:22:12.374Z,26.80
2023-07-19T07:24:51.252Z,26.88
2023-07-19T07:27:23.081Z,26.84
2023-07-19T07:30:02.161Z,26.76
2023-07-19T07:32:35.107Z,27.08
2023-07-19T07:35:09.769Z,27.46
2023-07-19T07:37:41.624Z,27.96
2023-07-19T07:40:13.737Z,28.39
2023-07-19T07:42:51.608Z,28.77
2023-07-19T07:45:23.381Z,28.85
2023-07-19T07:47:55.166Z,28.79
2023-07-19T07:50:26.941Z,29.04
2023-07-19T07:53:11.845Z,29.36
2023-07-19T07:55:44.667Z,29.33
2023-07-19T07:58:18.218Z,29.52
2023-07-19T08:00:50.427Z,29.74
2023-07-19T08:03:22.461Z,29.82
2023-07-19T08:06:23.156Z,30.06
2023-07-19T08:08:55.966Z,30.23
2023-07-19T08:11:28.268Z,30.47
2023-07-19T08:14:07.865Z,30.51
2023-07-19T08:16:39.571Z,30.64
2023-07-19T08:19:11.374Z,30.93
2023-07-19T08:21:47.086Z,31.23
2023-07-19T08:24:19.368Z,31.33
2023-07-19T08:26:51.118Z,30.86
2023-07-19T08:29:28.495Z,30.64
2023-07-19T08:32:01.385Z,30.87
2023-07-19T08:34:37.057Z,31.11
2023-07-19T08:37:12.901Z,31.07
2023-07-19T08:39:45.007Z,31.24
2023-07-19T08:42:19.981Z,31.60
2023-07-19T08:44:52.145Z,31.85
2023-07-19T08:47:26.966Z,32.23
2023-07-19T08:50:01.225Z,32.36
2023-07-19T08:52:36.131Z,32.54
2023-07-19T08:55:08.430Z,32.32
2023-07-19T08:57:44.648Z,32.13
2023-07-19T09:00:22.588Z,32.04
2023-07-19T09:02:54.915Z,32.18
2023-07-19T09:05:31.359Z,32.36
2023-07-19T09:08:03.671Z,32.68
2023-07-19T09:10:35.768Z,33.02
2023-07-19T09:13:10.495Z,32.58
2023-07-19T09:15:45.340Z,32.74
2023-07-19T09:18:20.311Z,32.85
2023-07-19T09:21:01.568Z,33.20
2023-07-19T09:23:38.253Z,33.41
2023-07-19T09:26:10.247Z,33.53
2023-07-19T09:28:42.552Z,33.64
2023-07-19T09:33:58.548Z,33.86
2023-07-19T09:36:31.106Z,33.77
2023-07-19T09:39:03.541Z,33.61
2023-07-19T09:41:35.555Z,33.35
2023-07-19T09:44:11.049Z,33.48
2023-07-19T09:46:46.522Z,33.49
2023-07-19T09:49:21.542Z,33.20
2023-07-19T09:51:57.106Z,33.06
2023-07-19T09:54:34.926Z,32.97
2023-07-19T09:57:07.938Z,33.26
2023-07-19T09:59:49.393Z,33.48
2023-07-19T10:02:23.771Z,33.49
2023-07-19T10:04:58.314Z,33.25
2023-07-19T10:07:44.827Z,33.29
2023-07-19T10:10:21.766Z,33.12
2023-07-19T10:12:53.737Z,33.29
2023-07-19T10:15:28.387Z,33.80
2023-07-19T10:18:14.632Z,33.64
2023-07-19T10:21:01.872Z,33.59
2023-07-19T10:23:46.931Z,33.78
2023-07-19T10:26:29.923Z,33.82
2023-07-19T10:29:08.526Z,33.30
2023-07-19T10:31:44.688Z,33.10
2023-07-19T10:34:17.759Z,32.88
2023-07-19T10:36:52.339Z,32.92
2023-07-19T10:39:24.562Z,32.57
2023-07-19T10:41:56.376Z,32.37
2023-07-19T10:44:28.451Z,32.55
2023-07-19T10:47:00.270Z,32.68
2023-07-19T10:49:32.825Z,32.82
2023-07-19T10:52:05.446Z,33.04
2023-07-19T10:54:46.511Z,33.19
2023-07-19T10:57:38.282Z,33.22
2023-07-19T11:00:20.898Z,33.40
2023-07-19T11:02:54.850Z,33.42
2023-07-19T11:05:28.962Z,33.54
2023-07-19T11:08:01.026Z,33.58
2023-07-19T11:10:33.315Z,33.49
2023-07-19T11:13:05.162Z,33.50
2023-07-19T11:15:42.625Z,33.06
2023-07-19T11:18:23.045Z,33.03
2023-07-19T11:21:07.327Z,33.19
2023-07-19T11:23:42.870Z,33.60
2023-07-19T11:26:20.808Z,33.96
2023-07-19T11:28:57.468Z,33.95
2023-07-19T11:31:44.448Z,33.64
2023-07-19T11:34:17.864Z,33.27
2023-07-19T11:36:49.851Z,33.36
2023-07-19T11:39:27.399Z,33.55
2023-07-19T11:41:59.168Z,33.48
2023-07-19T11:44:30.954Z,33.38
2023-07-19T11:47:03.141Z,33.42
2023-07-19T11:49:34.984Z,33.63
2023-07-19T11:52:08.397Z,33.64
2023-07-19T11:54:40.580Z,33.83
2023-07-19T11:57:13.727Z,33.82
2023-07-19T11:59:45.490Z,33.66
2023-07-19T12:02:18.267Z,33.46
2023-07-19T12:04:50.005Z,33.12
2023-07-19T12:07:21.756Z,33.22
2023-07-19T12:09:53.517Z,33.27
2023-07-19T12:12:25.362Z,33.39
2023-07-19T12:14:57.356Z,33.33
2023-07-19T12:17:29.664Z,33.08
2023-07-19T12:20:02.315Z,32.91
2023-07-19T12:22:37.302Z,32.51
2023-07-19T12:25:10.018Z,32.18
2023-07-19T12:27:54.858Z,32.12
2023-07-19T12:30:29.693Z,32.20
2023-07-19T12:33:02.274Z,32.18
2023-07-19T12:35:36.217Z,32.01
2023-07-19T12:38:09.987Z,32.10
2023-07-19T12:40:46.742Z,32.17
2023-07-19T12:43:18.462Z,32.21
2023-07-19T12:45:52.300Z,32.13
2023-07-19T12:48:24.830Z,32.20
2023-07-19T12:50:56.545Z,32.28
2023-07-19T12:53:29.322Z,32.30
2023-07-19T12:56:02.715Z,32.19
2023-07-19T12:58:34.430Z,32.01
2023-07-19T13:01:06.335Z,31.99
2023-07-19T13:03:38.167Z,32.08
2023-07-19T13:06:10.294Z,32.26
2023-07-19T13:08:42.148Z,32.36
2023-07-19T13:11:13.965Z,32.37
2023-07-19T13:13:49.026Z,32.31
2023-07-19T13:16:24.877Z,32.27
2023-07-19T13:18:57.484Z,32.17
2023-07-19T13:21:30.698Z,32.03
2023-07-19T13:24:02.737Z,31.92
2023-07-19T13:26:38.665Z,31.86
2023-07-19T13:29:11.184Z,31.85
2023-07-19T13:31:44.299Z,31.89
2023-07-19T13:34:18.835Z,31.63
2023-07-19T13:36:54.455Z,31.40
2023-07-19T13:39:31.419Z,31.24
2023-07-19T13:42:04.564Z,30.99
2023-07-19T13:44:39.500Z,30.82
2023-07-19T13:47:11.290Z,30.79
2023-07-19T13:49:43.417Z,30.86
2023-07-19T13:52:18.149Z,30.97
2023-07-19T13:54:50.831Z,30.91
2023-07-19T13:57:24.816Z,30.89
2023-07-19T13:59:57.191Z,30.74
2023-07-19T14:02:34.240Z,30.52
2023-07-19T14:05:26.603Z,30.43
2023-07-19T14:07:59.928Z,30.22
2023-07-19T14:10:34.959Z,30.06
2023-07-19T14:13:28.935Z,29.92
2023-07-19T14:16:06.571Z,29.90
2023-07-19T14:18:39.664Z,29.83
2023-07-19T14:21:11.995Z,29.73
2023-07-19T14:23:44.069Z,29.58
2023-07-19T14:26:18.054Z,29.28
2023-07-19T14:28:54.383Z,28.98
2023-07-19T14:31:31.421Z,28.81
2023-07-19T14:34:04.231Z,28.77
2023-07-19T14:36:35.944Z,28.69
2023-07-19T14:39:07.679Z,28.69
2023-07-19T14:41:39.693Z,28.57
2023-07-19T14:44:11.467Z,28.49
2023-07-19T14:46:43.571Z,28.46
2023-07-19T14:49:19.603Z,28.44
2023-07-19T14:51:51.962Z,28.39
2023-07-19T14:54:26.704Z,28.40
2023-07-19T14:59:36.009Z,28.40
2023-07-19T15:04:50.340Z,28.44
2023-07-19T15:07:23.050Z,28.48
2023-07-19T15:09:58.278Z,28.48
2023-07-19T15:12:30.259Z,28.51
2023-07-19T15:15:05.994Z,28.56
2023-07-19T15:17:37.944Z,28.64
2023-07-19T15:20:10.474Z,28.79
2023-07-19T15:22:42.822Z,28.93
2023-07-19T15:25:18.470Z,29.02
2023-07-19T15:27:50.274Z,28.98
2023-07-19T15:30:22.015Z,28.78
2023-07-19T15:32:53.790Z,28.74
2023-07-19T15:35:28.151Z,28.82
2023-07-19T15:37:59.930Z,28.71
2023-07-19T15:40:32.064Z,28.34
2023-07-19T15:43:05.890Z,28.01
2023-07-19T15:45:37.694Z,27.68
2023-07-19T15:48:09.668Z,27.29
2023-07-19T15:50:41.955Z,27.02
2023-07-19T15:53:15.906Z,26.92
2023-07-19T15:55:48.078Z,26.99
2023-07-19T15:58:19.860Z,26.91
2023-07-19T16:00:51.882Z,26.88
2023-07-19T16:03:23.878Z,26.94
2023-07-19T16:05:58.804Z,26.84
2023-07-19T16:08:31.219Z,26.82
2023-07-19T16:11:04.272Z,26.82
2023-07-19T16:13:36.949Z,26.79
2023-07-19T16:16:08.909Z,26.80
2023-07-19T16:18:40.645Z,26.98
2023-07-19T16:21:12.448Z,27.00
2023-07-19T16:23:45.641Z,27.05
2023-07-19T16:26:17.368Z,27.05
2023-07-19T16:28:49.132Z,26.97
2023-07-19T16:31:21.222Z,27.02
2023-07-19T16:33:53.406Z,27.14
2023-07-19T16:36:31.885Z,27.20
2023-07-19T16:39:05.903Z,27.26
2023-07-19T16:41:39.176Z,27.32
2023-07-19T16:44:12.120Z,27.37
2023-07-19T16:46:46.535Z,27.44
2023-07-19T16:49:19.382Z,27.44
2023-07-19T16:51:54.234Z,27.52
2023-07-19T16:54:26.016Z,27.58
2023-07-19T16:56:57.732Z,27.58
2023-07-19T16:59:31.839Z,27.57
2023-07-19T17:02:05.116Z,27.57
2023-07-19T17:04:36.907Z,27.61
2023-07-19T17:07:08.728Z,27.63
2023-07-19T17:09:40.533Z,27.50
2023-07-19T17:12:12.581Z,27.44
2023-07-19T17:14:44.433Z,27.44
2023-07-19T17:17:19.763Z,27.44
2023-07-19T17:19:54.598Z,27.37
2023-07-19T17:22:26.422Z,27.40
2023-07-19T17:25:00.390Z,27.47
2023-07-19T17:27:33.572Z,27.42
2023-07-19T17:30:08.085Z,27.32
2023-07-19T17:32:48.869Z,27.27
2023-07-19T17:35:24.210Z,27.26
2023-07-19T17:37:56.513Z,27.33
2023-07-19T17:40:33.774Z,27.37
2023-07-19T17:43:06.334Z,27.40
2023-07-19T17:45:40.478Z,27.44
2023-07-19T17:48:16.337Z,27.48
2023-07-19T17:50:49.353Z,27.47
2023-07-19T17:53:22.359Z,27.31
2023-07-19T17:55:54.124Z,27.26
2023-07-19T17:58:26.073Z,27.30
2023-07-19T18:01:00.772Z,27.31
2023-07-19T18:03:33.079Z,27.28
2023-07-19T18:06:05.285Z,27.32
2023-07-19T18:08:40.343Z,27.32
2023-07-19T18:11:12.186Z,27.25
2023-07-19T18:13:43.997Z,27.22
2023-07-19T18:16:18.632Z,27.24
2023-07-19T18:18:50.839Z,27.12
2023-07-19T18:21:25.180Z,27.04
2023-07-19T18:23:57.030Z,27.03
2023-07-19T18:26:28.785Z,27.06
2023-07-19T18:29:03.751Z,27.07
2023-07-19T18:31:38.320Z,27.07
2023-07-19T18:34:10.161Z,27.05
2023-07-19T18:36:42.588Z,26.88
2023-07-19T18:39:14.405Z,26.72
2023-07-19T18:41:46.151Z,26.59
2023-07-19T18:44:17.943Z,26.51
2023-07-19T18:46:50.533Z,26.47
2023-07-19T18:49:24.699Z,26.46
2023-07-19T18:51:57.670Z,26.41
2023-07-19T18:54:31.502Z,26.39
2023-07-19T18:57:04.940Z,26.38
2023-07-19T18:59:39.913Z,26.35
2023-07-19T19:02:11.653Z,26.28
2023-07-19T19:04:43.521Z,26.26
2023-07-19T19:07:16.174Z,26.22
2023-07-19T19:09:49.944Z,26.18
2023-07-19T19:12:21.853Z,26.14
2023-07-19T19:14:53.598Z,26.12
2023-07-19T19:17:25.420Z,26.12
2023-07-19T19:19:57.691Z,26.13
2023-07-19T19:22:32.881Z,26.13
2023-07-19T19:25:08.042Z,26.13
2023-07-19T19:27:39.888Z,26.12
2023-07-19T19:30:11.963Z,26.04
2023-07-19T19:32:43.727Z,26.08
2023-07-19T19:35:15.692Z,26.16
2023-07-19T19:37:47.876Z,26.16
2023-07-19T19:40:22.721Z,26.24
2023-07-19T19:42:58.573Z,26.25
2023-07-19T19:45:36.048Z,26.21
2023-07-19T19:48:07.982Z,26.03
2023-07-19T19:50:41.469Z,26.03
2023-07-19T19:53:16.690Z,25.98
2023-07-19T19:55:51.400Z,25.86
2023-07-19T19:58:25.275Z,25.77
2023-07-19T20:00:57.054Z,25.68
2023-07-19T20:06:04.161Z,25.44
2023-07-19T20:08:35.894Z,25.37
2023-07-19T20:11:11.540Z,25.24
2023-07-19T20:13:46.697Z,25.16
2023-07-19T20:16:19.741Z,25.04
2023-07-19T20:18:51.670Z,24.91
2023-07-19T20:21:24.899Z,24.86
2023-07-19T20:23:58.096Z,24.81
2023-07-19T20:26:30.435Z,24.63
2023-07-19T20:39:50.866Z,23.95
2023-07-19T20:42:27.354Z,23.90
2023-07-19T20:45:01.051Z,23.77
2023-07-19T20:47:38.083Z,23.63
2023-07-19T20:50:14.419Z,23.51
2023-07-19T20:52:48.502Z,23.45
2023-07-19T20:55:20.524Z,23.48
2023-07-19T20:57:52.684Z,23.47
2023-07-19T21:00:24.855Z,23.39
2023-07-19T21:02:57.830Z,23.40
2023-07-19T21:05:30.159Z,23.39
2023-07-19T21:08:04.753Z,23.40
2023-07-19T21:10:36.615Z,23.37
2023-07-19T21:13:08.385Z,23.29
2023-07-19T21:15:40.124Z,23.25
2023-07-19T21:18:14.497Z,23.21
2023-07-19T21:20:47.934Z,23.18
2023-07-19T21:23:22.075Z,23.14
2023-07-19T21:25:56.751Z,23.09
2023-07-19T21:28:30.464Z,23.04
2023-07-19T21:31:03.617Z,22.91
2023-07-19T21:33:43.044Z,22.89
2023-07-19T21:39:01.609Z,22.77
2023-07-19T21:41:34.521Z,22.66
2023-07-19T21:44:06.920Z,22.53
2023-07-19T21:46:39.940Z,22.45
2023-07-19T21:49:11.996Z,22.30
2023-07-19T21:51:46.699Z,22.23
2023-07-19T21:54:20.151Z,22.12
2023-07-19T21:56:51.872Z,22.08
2023-07-19T21:59:23.637Z,22.02
2023-07-19T22:01:56.995Z,21.94
2023-07-19T22:04:33.198Z,21.88
2023-07-19T22:07:08.808Z,21.89
2023-07-19T22:09:41.968Z,21.87
2023-07-19T22:12:18.490Z,21.82
2023-07-19T22:15:16.975Z,21.76
2023-07-19T22:21:22.234Z,21.69
2023-07-19T22:23:57.136Z,21.61
2023-07-19T22:26:28.924Z,21.52
2023-07-19T22:29:02.593Z,21.45
2023-07-19T22:31:36.060Z,21.39
2023-07-19T22:34:08.051Z,21.32
2023-07-19T22:36:39.785Z,21.26
2023-07-19T22:39:11.546Z,21.17
2023-07-19T22:41:43.260Z,21.08
2023-07-19T22:44:18.025Z,20.99
2023-07-19T22:46:52.605Z,20.98
2023-07-19T22:49:31.860Z,20.98
2023-07-19T22:52:03.769Z,20.91
2023-07-19T22:54:38.286Z,20.93
2023-07-19T22:57:10.083Z,20.91
2023-07-19T22:59:44.409Z,20.85
2023-07-19T23:02:17.244Z,20.87
2023-07-19T23:04:49.771Z,20.88
2023-07-19T23:07:24.898Z,20.92
2023-07-19T23:09:56.634Z,20.94
2023-07-19T23:12:31.492Z,20.95
2023-07-19T23:15:07.683Z,20.96
2023-07-19T23:17:39.470Z,20.95
2023-07-19T23:20:17.599Z,20.93
2023-07-19T23:22:49.365Z,20.90
2023-07-19T23:25:24.440Z,20.88
2023-07-19T23:28:02.288Z,20.75
2023-07-19T23:30:37.062Z,20.71
2023-07-19T23:33:08.948Z,20.78
2023-07-19T23:35:58.056Z,20.80
2023-07-19T23:38:33.951Z,20.85
2023-07-19T23:41:05.846Z,20.88
2023-07-19T23:43:39.269Z,20.91
2023-07-19T23:46:16.442Z,20.91
2023-07-19T23:48:48.238Z,20.91
2023-07-19T23:51:20.029Z,20.93
2023-07-19T23:53:51.777Z,20.91
2023-07-19T23:56:25.165Z,20.87
2023-07-19T23:59:00.046Z,20.81
